Time;durP1;ratioP1;P1;durP2;ratioP2;P2;SDS_P1;SDS_P2;PMS_P1;PMS_P2;Temp;Humidity;BMP_temperature;BMP_pressure;BME280_temperature;BME280_humidity;BME280_pressure;Samples;Min_cycle;Max_cycle;Signal;HPM_P1;HPM_P2
2021/12/31 00:01:49;;;;;;;7.30;0.87;;;17.00;83.60;17.50;97095.00;;;;5054553;28;20224;-84
2021/12/31 00:04:16;;;;;;;4.90;0.83;;;17.00;83.60;17.50;97087.00;;;;5055094;28;20205;-85
2021/12/31 00:06:45;;;;;;;0.47;0.47;;;17.00;83.60;17.50;97095.00;;;;5052686;28;20208;-86
2021/12/31 00:09:12;;;;;;;0.47;0.47;;;17.00;83.50;17.50;97092.00;;;;5032127;28;20194;-86
2021/12/31 00:11:40;;;;;;;2.17;0.73;;;17.00;83.50;17.50;97096.00;;;;5053264;28;20220;-85
2021/12/31 00:14:07;;;;;;;0.53;0.53;;;17.10;83.50;17.50;97092.00;;;;5054860;28;20289;-86
2021/12/31 00:16:34;;;;;;;10.67;0.90;;;17.00;83.40;17.50;97088.00;;;;5054359;28;20200;-85
2021/12/31 00:19:01;;;;;;;4.93;0.97;;;17.00;83.50;17.50;97087.00;;;;5054537;28;20654;-84
2021/12/31 00:21:32;;;;;;;11.47;1.00;;;17.00;83.50;17.50;97088.00;;;;5054294;28;20244;-85
2021/12/31 00:23:59;;;;;;;1.57;0.47;;;17.00;83.50;17.50;97087.00;;;;5058920;28;20192;-86
2021/12/31 00:26:26;;;;;;;0.40;0.40;;;17.00;83.50;17.50;97088.00;;;;5054464;28;20231;-85
2021/12/31 00:28:55;;;;;;;1.17;0.43;;;17.00;83.30;17.50;97081.00;;;;5054290;28;20204;-86
2021/12/31 00:31:22;;;;;;;2.50;0.50;;;17.00;83.20;17.50;97086.00;;;;5053904;28;20890;-86
2021/12/31 00:33:49;;;;;;;0.30;0.30;;;17.00;83.30;17.50;97093.00;;;;5047059;28;20209;-85
2021/12/31 00:36:16;;;;;;;0.40;0.40;;;16.90;83.20;17.50;97092.00;;;;5033947;28;20255;-85
2021/12/31 00:38:43;;;;;;;0.40;0.40;;;16.90;83.20;17.40;97103.00;;;;5037042;28;20669;-87
2021/12/31 00:41:11;;;;;;;13.43;1.10;;;16.90;83.80;17.40;97095.00;;;;5053870;28;20227;-85
2021/12/31 00:43:38;;;;;;;0.40;0.40;;;16.90;83.10;17.40;97107.00;;;;5053622;28;20201;-86
2021/12/31 00:46:06;;;;;;;2.80;0.50;;;16.90;83.20;17.40;97113.00;;;;5053052;28;20200;-85
2021/12/31 00:48:33;;;;;;;0.43;0.43;;;16.90;83.00;17.40;97107.00;;;;5053972;28;20546;-86
2021/12/31 00:51:00;;;;;;;5.70;0.70;;;16.90;82.80;17.40;97109.00;;;;5053612;28;20231;-85
2021/12/31 00:53:27;;;;;;;13.70;2.07;;;16.90;82.90;17.40;97110.00;;;;5053389;28;20193;-86
2021/12/31 00:55:54;;;;;;;0.40;0.40;;;16.90;83.00;17.30;97098.00;;;;5053588;28;20196;-86
2021/12/31 00:58:21;;;;;;;2.10;0.50;;;16.80;82.90;17.30;97097.00;;;;5053144;28;20197;-86
2021/12/31 01:00:48;;;;;;;0.40;0.40;;;16.80;82.80;17.30;97103.00;;;;5053103;28;20236;-85
2021/12/31 01:03:17;;;;;;;10.47;1.40;;;16.80;82.80;17.30;97109.00;;;;5052908;28;20262;-87
2021/12/31 01:05:44;;;;;;;3.13;0.60;;;16.80;82.90;17.30;97106.00;;;;5053467;28;20201;-86
2021/12/31 01:08:11;;;;;;;13.17;1.30;;;16.80;83.10;17.30;97113.00;;;;5053116;28;20189;-85
2021/12/31 01:10:38;;;;;;;0.90;0.50;;;16.80;83.10;17.30;97120.00;;;;5052914;28;20220;-85
2021/12/31 01:13:10;;;;;;;34.43;3.23;;;16.70;83.70;17.20;97121.00;;;;5047860;28;20232;-85
2021/12/31 01:15:41;;;;;;;2.40;0.73;;;16.80;83.10;17.20;97120.00;;;;5032991;28;20602;-85
2021/12/31 01:20:53;;;;;;;2.53;0.80;;;16.70;83.30;17.20;97125.00;;;;5032045;28;20683;-85
2021/12/31 01:23:20;;;;;;;1.67;0.70;;;16.70;83.10;17.20;97130.00;;;;5032939;28;20681;-86
2021/12/31 01:25:47;;;;;;;49.50;3.73;;;16.70;83.10;17.20;97123.00;;;;5032814;28;20685;-86
2021/12/31 01:28:14;;;;;;;67.97;4.00;;;16.70;83.20;17.10;97122.00;;;;5033095;28;20674;-85
2021/12/31 01:30:41;;;;;;;5.50;0.97;;;16.70;83.10;17.10;97125.00;;;;5032893;28;20229;-86
2021/12/31 01:33:09;;;;;;;1.47;0.40;;;16.60;83.00;17.10;97136.00;;;;5050584;28;20667;-86
2021/12/31 01:35:36;;;;;;;0.93;0.40;;;16.60;83.10;17.10;97129.00;;;;5052745;28;20226;-85
2021/12/31 01:38:05;;;;;;;0.63;0.63;;;16.60;83.10;17.10;97129.00;;;;5051903;28;20203;-86
2021/12/31 01:40:32;;;;;;;19.77;1.90;;;16.60;83.00;17.10;97127.00;;;;5052517;28;20251;-85
2021/12/31 01:42:59;;;;;;;1.13;0.50;;;16.60;83.20;17.10;97134.00;;;;5052456;28;20207;-86
2021/12/31 01:45:30;;;;;;;1.53;0.80;;;16.60;83.20;17.00;97130.00;;;;5052286;28;20203;-86
2021/12/31 01:48:06;;;;;;;4.43;1.03;;;16.50;83.20;17.00;97129.00;;;;5052272;28;20246;-85
2021/12/31 01:50:34;;;;;;;0.40;0.40;;;16.50;83.30;17.00;97135.00;;;;5052425;28;20266;-86
2021/12/31 01:53:03;;;;;;;12.27;1.63;;;16.50;83.30;17.00;97134.00;;;;5052311;28;20199;-86
2021/12/31 01:55:33;;;;;;;0.50;0.50;;;16.50;83.30;17.00;97127.00;;;;5051484;28;20197;-85
2021/12/31 01:58:04;;;;;;;33.07;2.57;;;16.50;83.40;17.00;97136.00;;;;5052656;28;20208;-85
2021/12/31 02:00:32;;;;;;;5.33;1.00;;;16.50;83.30;17.00;97139.00;;;;5063461;28;20190;-86
2021/12/31 02:03:01;;;;;;;9.90;1.03;;;16.50;83.30;17.00;97131.00;;;;5071744;28;20212;-85
2021/12/31 02:05:28;;;;;;;1.37;0.40;;;16.50;83.30;17.00;97128.00;;;;5052126;28;20564;-86
2021/12/31 02:07:55;;;;;;;1.17;0.50;;;16.50;83.20;16.90;97135.00;;;;5056220;28;20287;-86
2021/12/31 02:10:24;;;;;;;0.63;0.40;;;16.40;83.10;16.90;97136.00;;;;5064458;28;20227;-86
2021/12/31 02:12:52;;;;;;;0.40;0.40;;;16.40;83.10;16.90;97130.00;;;;5052042;28;20205;-85
2021/12/31 02:15:22;;;;;;;7.70;1.10;;;16.40;83.30;16.90;97137.00;;;;5051523;28;20203;-86
2021/12/31 02:17:50;;;;;;;0.70;0.40;;;16.40;83.30;16.90;97139.00;;;;5069677;28;20223;-86
2021/12/31 02:20:20;;;;;;;8.93;1.20;;;16.40;83.40;16.90;97138.00;;;;5072264;28;20200;-85
2021/12/31 02:22:54;;;;;;;0.60;0.50;;;16.40;83.40;16.90;97129.00;;;;5072850;28;20294;-85
2021/12/31 02:25:23;;;;;;;14.77;1.40;;;16.40;83.50;16.90;97136.00;;;;5072729;28;20185;-85
2021/12/31 02:27:51;;;;;;;3.57;0.63;;;16.40;83.50;16.90;97144.00;;;;5072233;28;20245;-84
2021/12/31 02:30:18;;;;;;;0.37;0.37;;;16.40;83.50;16.90;97134.00;;;;5071952;28;20222;-84
2021/12/31 02:32:45;;;;;;;1.43;0.50;;;16.40;83.50;16.90;97142.00;;;;5067385;28;20184;-85
2021/12/31 02:35:13;;;;;;;0.93;0.50;;;16.40;83.60;16.90;97135.00;;;;5052595;28;20208;-84
2021/12/31 02:37:41;;;;;;;7.93;1.37;;;16.40;83.60;16.90;97136.00;;;;5052340;28;20203;-84
2021/12/31 02:40:13;;;;;;;40.23;3.37;;;16.40;83.70;16.90;97131.00;;;;5052486;28;20210;-84
2021/12/31 02:42:41;;;;;;;0.47;0.47;;;16.40;83.60;16.90;97141.00;;;;5052390;28;20185;-84
2021/12/31 02:45:11;;;;;;;5.43;0.63;;;16.50;83.70;16.90;97131.00;;;;5051721;28;20193;-85
2021/12/31 02:47:45;;;;;;;4.13;0.80;;;16.40;83.60;16.90;97131.00;;;;5052173;28;20268;-84
2021/12/31 02:50:16;;;;;;;2.27;0.80;;;16.40;83.70;16.90;97132.00;;;;5051796;28;20263;-84
2021/12/31 02:52:46;;;;;;;11.70;1.33;;;16.40;83.80;16.90;97129.00;;;;5034069;28;20677;-84
2021/12/31 02:55:13;;;;;;;24.07;2.43;;;16.40;83.70;16.90;97127.00;;;;5032489;28;20193;-84
2021/12/31 02:57:42;;;;;;;12.63;1.33;;;16.40;83.70;16.90;97124.00;;;;5032369;28;20586;-85
2021/12/31 03:00:11;;;;;;;24.87;2.70;;;16.40;83.70;16.90;97126.00;;;;5035797;28;20203;-84
2021/12/31 03:02:40;;;;;;;6.63;0.93;;;16.40;83.70;16.90;97125.00;;;;5036779;28;20216;-87
2021/12/31 03:05:10;;;;;;;17.47;1.63;;;16.40;83.70;16.90;97133.00;;;;5043092;28;20197;-84
2021/12/31 03:07:39;;;;;;;2.53;0.40;;;16.40;83.70;16.90;97126.00;;;;5041498;28;20248;-84
2021/12/31 03:10:10;;;;;;;49.77;3.33;;;16.40;83.80;16.90;97121.00;;;;5035424;28;20207;-85
2021/12/31 03:12:40;;;;;;;7.73;1.20;;;16.40;83.70;16.90;97120.00;;;;5035900;28;20185;-84
2021/12/31 03:15:09;;;;;;;1.87;0.47;;;16.40;83.80;16.90;97111.00;;;;5035860;28;20201;-85
2021/12/31 03:17:36;;;;;;;10.17;1.63;;;16.40;83.80;16.90;97113.00;;;;5036034;28;20205;-85
2021/12/31 03:20:11;;;;;;;22.63;2.07;;;16.40;83.60;16.80;97112.00;;;;5036149;28;20197;-85
2021/12/31 03:22:38;;;;;;;18.33;1.43;;;16.40;83.50;16.80;97110.00;;;;5035964;28;20186;-85
2021/12/31 03:25:09;;;;;;;0.60;0.40;;;16.40;83.40;16.80;97109.00;;;;5035469;28;20196;-85
2021/12/31 03:27:37;;;;;;;4.43;0.67;;;16.30;83.20;16.80;97108.00;;;;5046047;28;20210;-84
2021/12/31 03:30:07;;;;;;;9.73;0.97;;;16.30;83.20;16.70;97105.00;;;;5075257;28;20204;-84
2021/12/31 03:32:34;;;;;;;1.23;0.60;;;16.30;83.20;16.70;97102.00;;;;5075542;28;20227;-84
2021/12/31 03:35:01;;;;;;;0.40;0.40;;;16.30;83.20;16.70;97106.00;;;;5075384;28;20191;-86
2021/12/31 03:37:28;;;;;;;16.83;1.20;;;16.20;83.20;16.70;97095.00;;;;5075283;28;20206;-85
2021/12/31 03:39:55;;;;;;;1.10;0.50;;;16.20;83.30;16.70;97096.00;;;;5075392;28;20597;-85
2021/12/31 03:42:23;;;;;;;1.53;0.60;;;16.30;83.40;16.60;97099.00;;;;5075354;28;20230;-85
2021/12/31 03:44:50;;;;;;;1.13;0.40;;;16.20;83.40;16.60;97091.00;;;;5075038;28;20210;-84
2021/12/31 03:47:17;;;;;;;35.67;2.53;;;16.10;83.30;16.60;97099.00;;;;5075063;28;20199;-86
2021/12/31 03:49:44;;;;;;;6.57;1.23;;;16.10;83.30;16.60;97092.00;;;;5075328;28;20207;-84
2021/12/31 03:52:11;;;;;;;14.67;1.63;;;16.10;83.10;16.50;97096.00;;;;5074705;28;20651;-85
2021/12/31 03:54:38;;;;;;;13.00;1.40;;;16.10;83.00;16.50;97090.00;;;;5074966;28;20211;-84
2021/12/31 03:57:06;;;;;;;9.70;1.03;;;16.10;82.90;16.40;97092.00;;;;5075037;28;20200;-84
2021/12/31 03:59:34;;;;;;;3.20;0.80;;;16.00;82.60;16.40;97094.00;;;;5073018;28;20537;-84
2021/12/31 04:02:01;;;;;;;6.40;0.90;;;15.90;82.40;16.30;97079.00;;;;5054563;28;20225;-84
2021/12/31 04:04:28;;;;;;;12.50;1.87;;;15.90;82.50;16.30;97086.00;;;;5054302;28;20207;-85
2021/12/31 04:06:55;;;;;;;0.93;0.63;;;15.90;82.50;16.20;97081.00;;;;5054678;28;20204;-84
2021/12/31 04:09:22;;;;;;;6.70;0.83;;;15.80;82.50;16.20;97080.00;;;;5054128;28;20196;-84
2021/12/31 04:11:49;;;;;;;10.00;1.20;;;15.80;82.50;16.10;97085.00;;;;5054607;28;20232;-84
2021/12/31 04:14:16;;;;;;;1.53;0.90;;;15.70;82.30;16.10;97084.00;;;;5054894;28;20193;-84
2021/12/31 04:16:44;;;;;;;1.00;0.60;;;15.70;82.30;16.00;97073.00;;;;5054555;28;20197;-84
2021/12/31 04:19:11;;;;;;;8.90;1.03;;;15.60;82.20;16.00;97077.00;;;;5055085;28;20558;-84
2021/12/31 04:21:38;;;;;;;7.83;0.97;;;15.60;82.90;15.90;97072.00;;;;5055120;28;20220;-86
2021/12/31 04:24:08;;;;;;;2.87;0.90;;;15.50;82.20;15.90;97073.00;;;;5054932;28;20197;-84
2021/12/31 04:26:35;;;;;;;34.60;2.73;;;15.50;82.30;15.80;97068.00;;;;5054476;28;20204;-85
2021/12/31 04:29:03;;;;;;;12.40;1.33;;;15.40;82.30;15.80;97068.00;;;;5054498;28;20196;-86
2021/12/31 04:31:30;;;;;;;21.90;1.93;;;15.40;82.20;15.70;97069.00;;;;5054330;28;20225;-84
2021/12/31 04:33:59;;;;;;;1.57;0.53;;;15.30;82.20;15.70;97067.00;;;;5054180;28;20658;-85
2021/12/31 04:36:26;;;;;;;22.93;1.90;;;15.30;82.30;15.60;97060.00;;;;5054219;28;20303;-84
2021/12/31 04:38:53;;;;;;;21.50;1.60;;;15.20;82.40;15.60;97067.00;;;;5054075;28;20538;-85
2021/12/31 04:41:20;;;;;;;17.20;1.80;;;15.20;82.50;15.50;97059.00;;;;5053844;28;20220;-85
2021/12/31 04:43:47;;;;;;;16.17;1.93;;;15.20;82.60;15.50;97062.00;;;;5054015;28;20203;-86
2021/12/31 04:46:14;;;;;;;4.63;0.70;;;15.10;82.70;15.50;97069.00;;;;5053809;28;20200;-84
2021/12/31 04:48:41;;;;;;;41.17;2.03;;;15.10;82.80;15.40;97063.00;;;;5053822;28;20204;-85
2021/12/31 04:51:09;;;;;;;24.87;2.07;;;15.10;82.90;15.40;97062.00;;;;5054007;28;20224;-84
2021/12/31 04:53:36;;;;;;;12.67;1.63;;;15.00;83.00;15.40;97063.00;;;;5053736;28;20564;-85
2021/12/31 04:56:04;;;;;;;7.03;0.80;;;15.00;83.10;15.40;97071.00;;;;5053632;28;20568;-86
2021/12/31 04:58:31;;;;;;;57.37;4.23;;;15.00;83.10;15.30;97073.00;;;;5054044;28;20197;-84
2021/12/31 05:00:57;;;;;;;14.40;1.47;;;14.90;83.00;15.30;97072.00;;;;5053182;28;20727;-84
2021/12/31 05:03:24;;;;;;;5.77;1.03;;;14.90;83.00;15.30;97067.00;;;;5053481;28;20200;-84
2021/12/31 05:05:51;;;;;;;7.93;1.47;;;14.90;83.10;15.30;97076.00;;;;5053861;28;20211;-86
2021/12/31 05:08:20;;;;;;;3.30;0.57;;;14.90;83.20;15.20;97075.00;;;;5053816;28;20201;-85
2021/12/31 05:10:47;;;;;;;17.73;1.63;;;14.80;83.20;15.20;97077.00;;;;5053631;28;20231;-84
2021/12/31 05:13:15;;;;;;;10.00;0.80;;;14.80;83.20;15.20;97085.00;;;;5053469;28;20193;-85
2021/12/31 05:15:46;;;;;;;4.73;0.93;;;14.80;83.30;15.20;97083.00;;;;5063881;28;20203;-84
2021/12/31 05:18:13;;;;;;;5.57;0.97;;;14.80;83.40;15.20;97082.00;;;;5073262;28;20298;-84
2021/12/31 05:20:40;;;;;;;7.93;1.40;;;14.80;83.30;15.10;97086.00;;;;5072764;28;20224;-84
2021/12/31 05:23:08;;;;;;;27.50;2.33;;;14.80;83.30;15.10;97080.00;;;;5072741;28;20571;-85
2021/12/31 05:25:36;;;;;;;35.07;2.03;;;14.80;83.20;15.10;97081.00;;;;5073066;28;20195;-84
2021/12/31 05:28:03;;;;;;;3.63;0.73;;;14.70;82.90;15.00;97089.00;;;;5073422;28;20223;-84
2021/12/31 05:30:30;;;;;;;5.37;0.83;;;14.70;82.90;15.00;97071.00;;;;5073241;28;20200;-85
2021/12/31 05:32:57;;;;;;;17.73;1.43;;;14.60;83.00;14.90;97064.00;;;;5072921;28;20231;-84
2021/12/31 05:35:24;;;;;;;3.77;0.60;;;14.60;83.00;14.90;97062.00;;;;5073424;28;20204;-85
2021/12/31 05:37:52;;;;;;;13.10;1.23;;;14.60;83.00;14.90;97060.00;;;;5073230;28;20196;-84
2021/12/31 05:40:20;;;;;;;19.17;1.83;;;14.50;82.90;14.80;97061.00;;;;5072987;28;20200;-85
2021/12/31 05:42:48;;;;;;;2.10;0.70;;;14.50;82.90;14.80;97048.00;;;;5072984;28;20200;-85
2021/12/31 05:45:16;;;;;;;43.10;2.97;;;14.50;83.00;14.80;97053.00;;;;5073063;28;20196;-84
2021/12/31 05:47:43;;;;;;;16.93;1.90;;;14.40;82.90;14.70;97052.00;;;;5072830;28;20223;-86
2021/12/31 05:50:27;;;;;;;8.53;1.00;;;14.40;82.90;14.70;97052.00;;;;5072730;28;20200;-85
2021/12/31 05:52:54;;;;;;;2.83;0.77;;;14.40;82.80;14.60;97055.00;;;;5072556;28;20304;-84
2021/12/31 05:55:21;;;;;;;16.20;1.80;;;14.40;82.90;14.60;97051.00;;;;5072526;28;20560;-84
2021/12/31 05:57:50;;;;;;;7.43;1.00;;;14.30;82.80;14.60;97043.00;;;;5072943;28;20204;-84
2021/12/31 06:00:18;;;;;;;1.93;0.70;;;14.20;82.80;14.60;97048.00;;;;5072406;28;20199;-84
2021/12/31 06:02:45;;;;;;;4.23;0.57;;;14.20;82.90;14.50;97058.00;;;;5072372;28;20207;-84
2021/12/31 06:05:12;;;;;;;43.97;3.40;;;14.20;82.90;14.50;97064.00;;;;5060431;28;20199;-84
2021/12/31 06:07:40;;;;;;;12.00;1.30;;;14.20;83.10;14.50;97066.00;;;;5052985;28;20197;-85
2021/12/31 06:10:08;;;;;;;9.93;0.80;;;14.10;83.20;14.50;97065.00;;;;5052211;28;20235;-85
2021/12/31 06:12:37;;;;;;;17.20;1.73;;;14.10;83.40;14.50;97069.00;;;;5051812;28;20602;-85
2021/12/31 06:15:08;;;;;;;10.50;1.10;;;14.10;83.50;14.50;97076.00;;;;5052245;28;20562;-84
2021/12/31 06:17:37;;;;;;;9.30;1.43;;;14.10;83.60;14.50;97072.00;;;;5052412;28;20231;-85
2021/12/31 06:20:05;;;;;;;10.87;1.23;;;14.10;83.80;14.50;97075.00;;;;5052222;28;20193;-85
2021/12/31 06:22:33;;;;;;;24.07;1.57;;;14.00;83.80;14.40;97077.00;;;;5052005;28;20812;-85
2021/12/31 06:25:00;;;;;;;19.90;1.43;;;14.00;83.80;14.40;97080.00;;;;5052066;28;20197;-86
2021/12/31 06:27:27;;;;;;;20.00;2.07;;;14.00;83.90;14.40;97078.00;;;;5051985;28;20201;-84
2021/12/31 06:29:54;;;;;;;27.43;2.30;;;14.00;83.90;14.40;97077.00;;;;5051453;28;20206;-86
2021/12/31 06:32:22;;;;;;;8.57;1.20;;;14.00;83.90;14.40;97077.00;;;;5052479;28;20230;-85
2021/12/31 06:34:49;;;;;;;2.70;0.53;;;14.00;83.80;14.40;97085.00;;;;5058550;28;20199;-84
2021/12/31 06:37:16;;;;;;;2.33;0.87;;;14.00;83.90;14.40;97080.00;;;;5058666;28;20193;-85
2021/12/31 06:39:45;;;;;;;32.13;2.77;;;14.00;83.90;14.40;97078.00;;;;5058760;28;20204;-84
2021/12/31 06:42:12;;;;;;;42.43;2.60;;;14.00;84.00;14.40;97075.00;;;;5058630;28;20224;-85
2021/12/31 06:44:40;;;;;;;16.30;1.27;;;14.00;84.00;14.40;97074.00;;;;5059100;28;20197;-83
2021/12/31 06:47:08;;;;;;;5.90;1.20;;;14.00;84.00;14.40;97070.00;;;;5059842;28;20196;-85
2021/12/31 06:49:37;;;;;;;2.30;0.73;;;14.00;83.90;14.40;97075.00;;;;5038242;28;20724;-84
2021/12/31 06:52:04;;;;;;;13.40;1.87;;;14.00;83.80;14.40;97078.00;;;;5038637;28;20228;-84
2021/12/31 06:54:31;;;;;;;23.30;1.77;;;14.00;83.90;14.40;97075.00;;;;5038792;28;20216;-85
2021/12/31 06:56:58;;;;;;;12.93;1.33;;;14.00;83.80;14.30;97068.00;;;;5038560;28;20197;-86
2021/12/31 06:59:25;;;;;;;0.83;0.50;;;14.00;83.80;14.30;97072.00;;;;5038436;28;20201;-84
2021/12/31 07:01:52;;;;;;;5.33;0.90;;;13.90;83.60;14.30;97068.00;;;;5038111;28;20229;-84
2021/12/31 07:04:19;;;;;;;1.47;0.60;;;13.90;83.60;14.30;97073.00;;;;5056618;28;20199;-84
2021/12/31 07:06:47;;;;;;;2.70;0.83;;;13.90;83.60;14.20;97067.00;;;;5058345;28;20199;-84
2021/12/31 07:09:14;;;;;;;1.70;0.60;;;13.90;83.50;14.20;97067.00;;;;5058293;28;20197;-87
2021/12/31 07:11:41;;;;;;;16.77;1.50;;;13.90;83.50;14.20;97064.00;;;;5058651;28;20235;-84
2021/12/31 07:14:08;;;;;;;2.50;0.70;;;13.80;83.40;14.20;97070.00;;;;5058431;28;20196;-84
2021/12/31 07:16:36;;;;;;;8.70;1.00;;;13.80;83.40;14.10;97057.00;;;;5058494;28;20658;-85
2021/12/31 07:19:02;;;;;;;27.30;2.23;;;13.80;83.30;14.10;97064.00;;;;5058782;28;20197;-84
2021/12/31 07:21:30;;;;;;;4.93;0.90;;;13.70;83.20;14.10;97055.00;;;;5057648;28;20224;-84
2021/12/31 07:23:58;;;;;;;7.70;1.20;;;13.70;83.20;14.00;97065.00;;;;5058260;28;20574;-84
2021/12/31 07:26:25;;;;;;;4.93;1.10;;;13.70;83.20;14.00;97064.00;;;;5058243;28;20200;-84
2021/12/31 07:28:52;;;;;;;28.07;2.37;;;13.70;83.20;14.00;97067.00;;;;5058478;28;20206;-84
2021/12/31 07:31:19;;;;;;;6.50;1.30;;;13.70;83.20;13.90;97055.00;;;;5058103;28;20216;-84
2021/12/31 07:33:46;;;;;;;0.70;0.60;;;13.60;83.00;13.90;97071.00;;;;5058424;28;20219;-85
2021/12/31 07:36:13;;;;;;;14.10;1.60;;;13.60;83.10;13.90;97068.00;;;;5058586;28;20567;-84
2021/12/31 07:38:47;;;;;;;14.80;1.67;;;13.50;83.00;13.80;97069.00;;;;5058241;28;20199;-84
2021/12/31 07:41:15;;;;;;;2.87;1.03;;;13.50;82.90;13.80;97064.00;;;;5059568;28;20220;-85
2021/12/31 07:43:42;;;;;;;19.90;2.27;;;13.50;82.90;13.80;97076.00;;;;5079632;28;20211;-84
2021/12/31 07:46:09;;;;;;;10.97;1.67;;;13.40;82.90;13.70;97073.00;;;;5079351;28;20283;-84
2021/12/31 07:48:36;;;;;;;33.07;3.77;;;13.40;82.90;13.70;97075.00;;;;5075768;28;20558;-84
2021/12/31 07:51:03;;;;;;;3.60;1.53;;;13.40;82.90;13.70;97075.00;;;;5075215;28;20216;-84
2021/12/31 07:53:31;;;;;;;23.47;2.37;;;13.30;82.80;13.60;97079.00;;;;5075147;28;20220;-85
2021/12/31 07:55:58;;;;;;;5.23;1.20;;;13.30;82.70;13.60;97076.00;;;;5074958;28;20295;-84
2021/12/31 07:58:27;;;;;;;3.07;1.17;;;13.30;82.80;13.50;97076.00;;;;5070482;28;20192;-85
2021/12/31 08:00:55;;;;;;;4.60;1.80;;;13.30;82.90;13.50;97075.00;;;;5053924;28;20213;-86
2021/12/31 08:03:22;;;;;;;2.47;1.43;;;13.20;82.80;13.50;97079.00;;;;5055176;28;20212;-84
2021/12/31 08:05:49;;;;;;;6.93;2.10;;;13.20;82.70;13.40;97079.00;;;;5055577;28;20684;-84
2021/12/31 08:08:16;;;;;;;25.10;3.10;;;13.10;82.80;13.40;97077.00;;;;5055405;28;20296;-83
2021/12/31 08:10:43;;;;;;;15.97;1.43;;;13.10;83.10;13.40;97083.00;;;;5056005;28;20706;-82
2021/12/31 08:13:11;;;;;;;12.20;1.77;;;13.10;83.30;13.40;97078.00;;;;5049223;28;20225;-84
2021/12/31 08:15:40;;;;;;;6.63;1.67;;;13.10;83.40;13.40;97078.00;;;;5035397;28;20591;-84
2021/12/31 08:18:07;;;;;;;2.47;1.20;;;13.00;83.30;13.40;97087.00;;;;5036903;28;20678;-84
2021/12/31 08:20:35;;;;;;;11.33;2.00;;;13.00;83.50;13.40;97088.00;;;;5054847;28;20223;-82
2021/12/31 08:23:09;;;;;;;96.83;6.80;;;13.00;83.70;13.40;97084.00;;;;5055631;28;20200;-84
2021/12/31 08:25:36;;;;;;;30.73;3.43;;;13.00;83.80;13.40;97073.00;;;;5054318;28;20277;-84
2021/12/31 08:28:04;;;;;;;40.70;3.90;;;13.00;83.90;13.50;97076.00;;;;5054662;28;20200;-83
2021/12/31 08:30:31;;;;;;;25.77;3.73;;;13.00;84.00;13.50;97079.00;;;;5068451;28;20204;-84
2021/12/31 08:32:59;;;;;;;31.67;4.20;;;13.00;84.20;13.50;97089.00;;;;5053422;28;20227;-84
2021/12/31 08:35:26;;;;;;;2.37;1.40;;;13.00;84.40;13.50;97087.00;;;;5037708;28;20201;-84
2021/12/31 08:37:53;;;;;;;4.00;1.60;;;13.00;84.60;13.50;97091.00;;;;5033267;28;20209;-84
2021/12/31 08:40:21;;;;;;;1.60;1.50;;;13.00;85.10;13.60;97097.00;;;;5034125;28;20223;-84
2021/12/31 08:42:48;;;;;;;6.77;1.90;;;13.10;85.50;13.70;97094.00;;;;5037164;28;20205;-83
2021/12/31 08:45:15;;;;;;;1.50;1.40;;;13.10;85.90;13.70;97089.00;;;;5053979;28;20188;-84
2021/12/31 08:47:42;;;;;;;6.97;2.10;;;13.20;86.30;13.80;97085.00;;;;5053931;28;20209;-83
2021/12/31 08:50:11;;;;;;;1.30;1.20;;;13.20;86.70;13.90;97092.00;;;;5065031;28;20189;-84
2021/12/31 08:52:39;;;;;;;1.03;1.00;;;13.30;87.00;14.00;97085.00;;;;5061117;28;20294;-84
2021/12/31 08:55:09;;;;;;;10.57;1.50;;;13.40;87.30;14.10;97086.00;;;;5062778;28;20207;-83
2021/12/31 08:57:36;;;;;;;3.00;1.50;;;13.50;87.50;14.10;97085.00;;;;5052585;28;20201;-83
2021/12/31 09:00:05;;;;;;;8.27;1.40;;;13.50;87.60;14.20;97080.00;;;;5066969;28;20188;-83
2021/12/31 09:02:32;;;;;;;1.17;1.07;;;13.60;87.90;14.30;97078.00;;;;5073281;28;20227;-83
2021/12/31 09:04:59;;;;;;;2.30;1.20;;;13.70;88.00;14.40;97076.00;;;;5056238;28;20200;-83
2021/12/31 09:07:29;;;;;;;1.00;1.00;;;13.80;88.10;14.50;97080.00;;;;5071657;28;20187;-83
2021/12/31 09:09:56;;;;;;;1.07;0.97;;;13.90;88.20;14.60;97082.00;;;;5060653;28;20197;-83
2021/12/31 09:12:23;;;;;;;5.20;1.07;;;14.00;88.30;14.70;97084.00;;;;5061905;28;20231;-84
2021/12/31 09:14:50;;;;;;;3.03;1.30;;;14.10;88.30;14.80;97084.00;;;;5072628;28;20192;-84
2021/12/31 09:17:17;;;;;;;2.57;1.33;;;14.20;88.20;14.80;97087.00;;;;5073412;28;20206;-83
2021/12/31 09:19:44;;;;;;;1.00;1.00;;;14.30;88.20;14.90;97088.00;;;;5073339;28;20286;-83
2021/12/31 09:22:12;;;;;;;1.03;1.03;;;14.30;88.00;15.00;97084.00;;;;5055945;28;20217;-84
2021/12/31 09:24:41;;;;;;;7.77;1.37;;;14.40;87.90;15.10;97082.00;;;;5052774;28;20196;-84
2021/12/31 09:27:08;;;;;;;12.07;1.63;;;14.50;87.80;15.10;97086.00;;;;5053069;28;20287;-84
2021/12/31 09:29:35;;;;;;;2.43;1.03;;;14.60;87.60;15.20;97088.00;;;;5052528;28;20200;-84
2021/12/31 09:32:02;;;;;;;1.10;1.00;;;14.70;87.60;15.30;97091.00;;;;5047408;28;20219;-85
2021/12/31 09:34:29;;;;;;;3.20;1.40;;;14.70;87.40;15.40;97089.00;;;;5043668;28;20204;-84
2021/12/31 09:36:56;;;;;;;1.30;1.20;;;14.80;87.30;15.40;97093.00;;;;5052146;28;20196;-84
2021/12/31 09:39:23;;;;;;;4.00;1.60;;;14.90;87.40;15.50;97090.00;;;;5052986;28;20204;-85
2021/12/31 09:41:52;;;;;;;7.83;1.37;;;15.00;87.40;15.60;97087.00;;;;5052659;28;20223;-84
2021/12/31 09:44:21;;;;;;;0.97;0.97;;;15.10;87.50;15.70;97097.00;;;;5037300;28;20205;-84
2021/12/31 09:46:48;;;;;;;3.43;0.90;;;15.20;87.60;15.80;97100.00;;;;5032124;28;20660;-84
2021/12/31 09:49:15;;;;;;;2.43;1.00;;;15.30;87.80;15.90;97102.00;;;;5032733;28;20197;-84
2021/12/31 09:51:43;;;;;;;0.80;0.80;;;15.40;87.80;16.10;97099.00;;;;5031961;28;20225;-83
2021/12/31 09:54:12;;;;;;;1.77;0.87;;;15.50;87.60;16.20;97114.00;;;;5032245;28;20715;-83
2021/12/31 09:56:40;;;;;;;1.00;1.00;;;15.60;87.30;16.30;97110.00;;;;5047035;28;20675;-84
2021/12/31 09:59:10;;;;;;;4.97;1.50;;;15.70;87.20;16.50;97112.00;;;;5052841;28;20200;-84
2021/12/31 10:01:46;;;;;;;8.60;1.50;;;15.90;87.20;16.60;97107.00;;;;5052371;28;20227;-83
2021/12/31 10:04:14;;;;;;;10.77;2.03;;;16.00;87.00;16.80;97097.00;;;;5032082;28;20204;-83
2021/12/31 10:07:12;;;;;;;7.60;1.40;;;16.20;87.10;16.90;97103.00;;;;5051423;28;20197;-84
2021/12/31 10:09:40;;;;;;;0.93;0.93;;;16.40;86.20;17.00;97102.00;;;;5051967;28;20201;-84
2021/12/31 10:12:08;;;;;;;1.83;1.30;;;16.50;86.60;17.10;97098.00;;;;5052189;28;20275;-84
2021/12/31 10:14:39;;;;;;;1.80;0.87;;;16.60;86.90;17.20;97091.00;;;;5053937;28;20567;-84
2021/12/31 10:17:07;;;;;;;2.73;0.90;;;16.80;86.80;17.30;97084.00;;;;5072178;28;20231;-84
2021/12/31 10:19:34;;;;;;;1.10;1.00;;;17.00;87.00;17.50;97088.00;;;;5072225;28;20221;-84
2021/12/31 10:22:02;;;;;;;1.37;0.77;;;17.10;86.50;17.60;97075.00;;;;5072326;28;20219;-84
2021/12/31 10:24:40;;;;;;;1.10;0.70;;;17.30;86.10;17.70;97068.00;;;;5058212;28;20200;-84
2021/12/31 10:27:19;;;;;;;1.30;1.00;;;17.50;85.20;17.90;97073.00;;;;5036875;28;20247;-84
2021/12/31 10:29:56;;;;;;;1.30;1.00;;;17.70;84.40;18.00;97070.00;;;;5063192;28;20624;-84
2021/12/31 10:32:26;;;;;;;3.00;1.00;;;17.80;83.30;18.20;97067.00;;;;5072183;28;20245;-84
2021/12/31 10:34:54;;;;;;;2.07;1.00;;;18.00;84.20;18.30;97071.00;;;;5055830;28;20219;-84
2021/12/31 10:37:25;;;;;;;2.93;0.90;;;18.10;83.60;18.30;97073.00;;;;5052589;28;20673;-84
2021/12/31 10:39:57;;;;;;;1.37;0.80;;;18.20;82.40;18.40;97067.00;;;;5052701;28;20189;-84
2021/12/31 10:42:30;;;;;;;6.77;0.90;;;18.30;81.50;18.40;97073.00;;;;5052082;28;20212;-84
2021/12/31 10:45:00;;;;;;;0.90;0.80;;;18.30;81.00;18.50;97069.00;;;;5032236;28;20182;-84
2021/12/31 10:47:32;;;;;;;0.90;0.90;;;18.30;80.70;18.50;97058.00;;;;5031943;28;20590;-83
2021/12/31 10:50:15;;;;;;;0.80;0.80;;;18.30;79.60;18.40;97056.00;;;;5070070;28;20634;-84
2021/12/31 10:52:57;;;;;;;3.70;1.30;;;18.30;78.20;18.30;97049.00;;;;5072279;28;20540;-84
2021/12/31 10:55:29;;;;;;;1.27;1.17;;;18.20;78.80;18.30;97044.00;;;;5068175;28;20386;-84
2021/12/31 10:58:00;;;;;;;11.47;1.80;;;18.20;78.50;18.20;97037.00;;;;5051793;28;20211;-84
2021/12/31 11:00:32;;;;;;;2.63;0.80;;;18.10;78.50;18.20;97034.00;;;;5054112;28;20208;-84